sensor_id;sensor_type;location;lat;lon;timestamp;P1;durP1;ratioP1;P2;durP2;ratioP2
48588;SDS011;34369;51.174;6.738;2022-12-01T00:02:06;50.17;;;45.93;;
48588;SDS011;34369;51.174;6.738;2022-12-01T00:04:39;49.73;;;45.50;;
48588;SDS011;34369;51.174;6.738;2022-12-01T00:07:11;50.60;;;46.27;;
48588;SDS011;34369;51.174;6.738;2022-12-01T00:09:43;49.27;;;45.07;;
48588;SDS011;34369;51.174;6.738;2022-12-01T00:12:37;50.27;;;46.00;;
48588;SDS011;34369;51.174;6.738;2022-12-01T00:15:13;49.77;;;45.27;;
48588;SDS011;34369;51.174;6.738;2022-12-01T00:17:46;48.37;;;44.33;;
48588;SDS011;34369;51.174;6.738;2022-12-01T00:20:18;50.43;;;46.03;;
48588;SDS011;34369;51.174;6.738;2022-12-01T00:22:50;49.30;;;45.10;;
48588;SDS011;34369;51.174;6.738;2022-12-01T00:25:22;50.07;;;45.50;;
48588;SDS011;34369;51.174;6.738;2022-12-01T00:27:54;50.40;;;45.80;;
48588;SDS011;34369;51.174;6.738;2022-12-01T00:30:32;49.40;;;45.10;;
48588;SDS011;34369;51.174;6.738;2022-12-01T00:33:04;50.88;;;46.17;;
48588;SDS011;34369;51.174;6.738;2022-12-01T00:35:36;48.80;;;44.50;;
48588;SDS011;34369;51.174;6.738;2022-12-01T00:38:08;50.20;;;45.50;;
48588;SDS011;34369;51.174;6.738;2022-12-01T00:40:40;49.30;;;45.07;;
48588;SDS011;34369;51.174;6.738;2022-12-01T00:43:12;49.73;;;45.03;;
48588;SDS011;34369;51.174;6.738;2022-12-01T00:45:45;46.90;;;42.97;;
48588;SDS011;34369;51.174;6.738;2022-12-01T00:48:17;50.57;;;45.87;;
48588;SDS011;34369;51.174;6.738;2022-12-01T00:50:50;49.67;;;45.23;;
48588;SDS011;34369;51.174;6.738;2022-12-01T00:53:24;48.53;;;44.27;;
48588;SDS011;34369;51.174;6.738;2022-12-01T00:55:56;49.77;;;45.37;;
48588;SDS011;34369;51.174;6.738;2022-12-01T00:58:28;48.30;;;44.10;;
48588;SDS011;34369;51.174;6.738;2022-12-01T01:01:02;48.80;;;44.60;;
48588;SDS011;34369;51.174;6.738;2022-12-01T01:03:34;47.80;;;43.70;;
48588;SDS011;34369;51.174;6.738;2022-12-01T01:06:07;49.80;;;45.53;;
48588;SDS011;34369;51.174;6.738;2022-12-01T01:08:41;47.63;;;43.70;;
48588;SDS011;34369;51.174;6.738;2022-12-01T01:11:13;48.23;;;44.23;;
48588;SDS011;34369;51.174;6.738;2022-12-01T01:13:45;48.20;;;44.13;;
48588;SDS011;34369;51.174;6.738;2022-12-01T01:16:19;47.37;;;43.50;;
48588;SDS011;34369;51.174;6.738;2022-12-01T01:18:53;48.03;;;43.77;;
48588;SDS011;34369;51.174;6.738;2022-12-01T01:21:26;48.27;;;44.07;;
48588;SDS011;34369;51.174;6.738;2022-12-01T01:23:58;49.13;;;45.03;;
48588;SDS011;34369;51.174;6.738;2022-12-01T01:26:31;48.63;;;44.33;;
48588;SDS011;34369;51.174;6.738;2022-12-01T01:29:06;51.33;;;47.00;;
48588;SDS011;34369;51.174;6.738;2022-12-01T01:31:39;50.67;;;46.23;;
48588;SDS011;34369;51.174;6.738;2022-12-01T01:34:11;51.00;;;46.70;;
48588;SDS011;34369;51.174;6.738;2022-12-01T01:36:43;50.20;;;45.60;;
48588;SDS011;34369;51.174;6.738;2022-12-01T01:39:15;51.60;;;46.93;;
48588;SDS011;34369;51.174;6.738;2022-12-01T01:41:47;50.57;;;45.87;;
48588;SDS011;34369;51.174;6.738;2022-12-01T01:47:21;50.13;;;45.20;;
48588;SDS011;34369;51.174;6.738;2022-12-01T01:49:58;51.83;;;46.83;;
48588;SDS011;34369;51.174;6.738;2022-12-01T01:52:35;53.40;;;48.27;;
48588;SDS011;34369;51.174;6.738;2022-12-01T01:55:11;51.00;;;46.20;;
48588;SDS011;34369;51.174;6.738;2022-12-01T01:57:44;54.40;;;49.30;;
48588;SDS011;34369;51.174;6.738;2022-12-01T02:00:17;49.80;;;45.07;;
48588;SDS011;34369;51.174;6.738;2022-12-01T02:02:52;52.03;;;46.93;;
48588;SDS011;34369;51.174;6.738;2022-12-01T02:05:24;54.37;;;49.13;;
48588;SDS011;34369;51.174;6.738;2022-12-01T02:08:01;52.72;;;47.83;;
48588;SDS011;34369;51.174;6.738;2022-12-01T02:10:45;52.03;;;47.03;;
48588;SDS011;34369;51.174;6.738;2022-12-01T02:13:37;53.23;;;48.10;;
48588;SDS011;34369;51.174;6.738;2022-12-01T02:16:17;52.17;;;47.20;;
48588;SDS011;34369;51.174;6.738;2022-12-01T02:18:59;49.73;;;44.73;;
48588;SDS011;34369;51.174;6.738;2022-12-01T02:21:54;55.47;;;50.17;;
48588;SDS011;34369;51.174;6.738;2022-12-01T02:31:00;53.53;;;48.23;;
48588;SDS011;34369;51.174;6.738;2022-12-01T02:33:35;54.20;;;48.90;;
48588;SDS011;34369;51.174;6.738;2022-12-01T02:36:13;53.38;;;48.05;;
48588;SDS011;34369;51.174;6.738;2022-12-01T02:38:50;55.17;;;49.77;;
48588;SDS011;34369;51.174;6.738;2022-12-01T02:41:27;51.17;;;46.28;;
48588;SDS011;34369;51.174;6.738;2022-12-01T02:44:05;55.33;;;50.07;;
48588;SDS011;34369;51.174;6.738;2022-12-01T02:46:44;54.63;;;49.23;;
48588;SDS011;34369;51.174;6.738;2022-12-01T02:49:22;54.70;;;49.33;;
48588;SDS011;34369;51.174;6.738;2022-12-01T02:54:31;52.53;;;47.50;;
48588;SDS011;34369;51.174;6.738;2022-12-01T02:57:04;55.90;;;49.93;;
48588;SDS011;34369;51.174;6.738;2022-12-01T02:59:38;53.53;;;48.30;;
48588;SDS011;34369;51.174;6.738;2022-12-01T03:02:15;53.97;;;48.20;;
48588;SDS011;34369;51.174;6.738;2022-12-01T03:04:59;54.55;;;49.20;;
48588;SDS011;34369;51.174;6.738;2022-12-01T03:07:39;54.83;;;49.20;;
48588;SDS011;34369;51.174;6.738;2022-12-01T03:10:23;55.37;;;49.77;;
48588;SDS011;34369;51.174;6.738;2022-12-01T03:13:05;56.53;;;50.37;;
48588;SDS011;34369;51.174;6.738;2022-12-01T03:15:47;54.67;;;48.20;;
48588;SDS011;34369;51.174;6.738;2022-12-01T03:18:31;57.80;;;50.87;;
48588;SDS011;34369;51.174;6.738;2022-12-01T03:21:09;54.50;;;49.07;;
48588;SDS011;34369;51.174;6.738;2022-12-01T03:23:49;56.23;;;49.93;;
48588;SDS011;34369;51.174;6.738;2022-12-01T03:26:25;58.80;;;52.63;;
48588;SDS011;34369;51.174;6.738;2022-12-01T03:29:02;59.40;;;52.13;;
48588;SDS011;34369;51.174;6.738;2022-12-01T03:31:40;59.23;;;52.57;;
48588;SDS011;34369;51.174;6.738;2022-12-01T03:34:20;58.57;;;51.10;;
48588;SDS011;34369;51.174;6.738;2022-12-01T03:36:59;57.93;;;51.20;;
48588;SDS011;34369;51.174;6.738;2022-12-01T03:39:36;57.30;;;51.37;;
48588;SDS011;34369;51.174;6.738;2022-12-01T03:42:12;64.23;;;52.87;;
48588;SDS011;34369;51.174;6.738;2022-12-01T03:44:51;57.73;;;51.57;;
48588;SDS011;34369;51.174;6.738;2022-12-01T03:47:27;60.63;;;51.08;;
48588;SDS011;34369;51.174;6.738;2022-12-01T03:50:06;64.90;;;53.47;;
48588;SDS011;34369;51.174;6.738;2022-12-01T03:52:44;55.07;;;49.13;;
48588;SDS011;34369;51.174;6.738;2022-12-01T03:55:22;56.43;;;50.27;;
48588;SDS011;34369;51.174;6.738;2022-12-01T03:57:59;56.55;;;50.13;;
48588;SDS011;34369;51.174;6.738;2022-12-01T04:00:36;60.03;;;53.50;;
48588;SDS011;34369;51.174;6.738;2022-12-01T04:03:14;64.00;;;54.57;;
48588;SDS011;34369;51.174;6.738;2022-12-01T04:05:50;55.20;;;49.30;;
48588;SDS011;34369;51.174;6.738;2022-12-01T04:08:22;58.00;;;52.10;;
48588;SDS011;34369;51.174;6.738;2022-12-01T04:10:54;58.20;;;51.83;;
48588;SDS011;34369;51.174;6.738;2022-12-01T04:13:27;59.77;;;52.93;;
48588;SDS011;34369;51.174;6.738;2022-12-01T04:15:58;61.37;;;50.83;;
48588;SDS011;34369;51.174;6.738;2022-12-01T04:18:30;60.37;;;50.57;;
48588;SDS011;34369;51.174;6.738;2022-12-01T04:21:03;58.40;;;51.00;;
48588;SDS011;34369;51.174;6.738;2022-12-01T04:23:36;58.50;;;52.30;;
48588;SDS011;34369;51.174;6.738;2022-12-01T04:26:25;58.40;;;51.17;;
48588;SDS011;34369;51.174;6.738;2022-12-01T04:28:57;59.53;;;51.40;;
48588;SDS011;34369;51.174;6.738;2022-12-01T04:31:29;55.83;;;49.87;;
48588;SDS011;34369;51.174;6.738;2022-12-01T04:34:01;58.20;;;51.93;;
48588;SDS011;34369;51.174;6.738;2022-12-01T04:36:36;57.80;;;51.80;;
48588;SDS011;34369;51.174;6.738;2022-12-01T04:39:08;53.90;;;48.60;;
48588;SDS011;34369;51.174;6.738;2022-12-01T04:41:40;57.17;;;50.93;;
48588;SDS011;34369;51.174;6.738;2022-12-01T04:44:13;52.27;;;47.13;;
48588;SDS011;34369;51.174;6.738;2022-12-01T04:46:45;51.53;;;46.53;;
48588;SDS011;34369;51.174;6.738;2022-12-01T04:49:17;53.43;;;48.37;;
48588;SDS011;34369;51.174;6.738;2022-12-01T04:51:50;54.70;;;49.70;;
48588;SDS011;34369;51.174;6.738;2022-12-01T04:54:22;51.03;;;46.30;;
48588;SDS011;34369;51.174;6.738;2022-12-01T04:56:54;54.17;;;49.00;;
48588;SDS011;34369;51.174;6.738;2022-12-01T04:59:26;52.33;;;47.40;;
48588;SDS011;34369;51.174;6.738;2022-12-01T05:01:58;50.93;;;45.87;;
48588;SDS011;34369;51.174;6.738;2022-12-01T05:04:31;50.00;;;45.30;;
48588;SDS011;34369;51.174;6.738;2022-12-01T05:07:08;51.60;;;46.92;;
48588;SDS011;34369;51.174;6.738;2022-12-01T05:09:40;54.10;;;49.10;;
48588;SDS011;34369;51.174;6.738;2022-12-01T05:12:13;52.83;;;47.83;;
48588;SDS011;34369;51.174;6.738;2022-12-01T05:14:46;52.87;;;48.20;;
48588;SDS011;34369;51.174;6.738;2022-12-01T05:17:18;51.47;;;46.43;;
48588;SDS011;34369;51.174;6.738;2022-12-01T05:19:50;51.53;;;46.63;;
48588;SDS011;34369;51.174;6.738;2022-12-01T05:22:41;49.30;;;44.70;;
48588;SDS011;34369;51.174;6.738;2022-12-01T05:25:13;51.07;;;46.50;;
48588;SDS011;34369;51.174;6.738;2022-12-01T05:27:45;49.53;;;44.93;;
48588;SDS011;34369;51.174;6.738;2022-12-01T05:30:17;50.67;;;46.10;;
48588;SDS011;34369;51.174;6.738;2022-12-01T05:32:49;49.23;;;44.83;;
48588;SDS011;34369;51.174;6.738;2022-12-01T05:35:21;50.47;;;45.73;;
48588;SDS011;34369;51.174;6.738;2022-12-01T05:37:54;48.80;;;44.30;;
48588;SDS011;34369;51.174;6.738;2022-12-01T05:40:26;50.53;;;45.83;;
48588;SDS011;34369;51.174;6.738;2022-12-01T05:42:59;50.40;;;45.83;;
48588;SDS011;34369;51.174;6.738;2022-12-01T05:45:32;51.27;;;46.67;;
48588;SDS011;34369;51.174;6.738;2022-12-01T05:48:04;51.63;;;47.10;;
48588;SDS011;34369;51.174;6.738;2022-12-01T05:50:36;50.43;;;45.97;;
48588;SDS011;34369;51.174;6.738;2022-12-01T05:53:11;50.77;;;46.00;;
48588;SDS011;34369;51.174;6.738;2022-12-01T05:55:49;53.30;;;48.30;;
48588;SDS011;34369;51.174;6.738;2022-12-01T05:58:23;50.37;;;45.43;;
48588;SDS011;34369;51.174;6.738;2022-12-01T06:00:55;51.10;;;46.50;;
48588;SDS011;34369;51.174;6.738;2022-12-01T06:03:27;51.00;;;46.43;;
48588;SDS011;34369;51.174;6.738;2022-12-01T06:05:59;51.57;;;46.77;;
48588;SDS011;34369;51.174;6.738;2022-12-01T06:08:33;51.83;;;47.03;;
48588;SDS011;34369;51.174;6.738;2022-12-01T06:11:05;53.27;;;48.37;;
48588;SDS011;34369;51.174;6.738;2022-12-01T06:13:37;54.43;;;49.53;;
48588;SDS011;34369;51.174;6.738;2022-12-01T06:16:09;52.10;;;47.33;;
48588;SDS011;34369;51.174;6.738;2022-12-01T06:18:42;54.13;;;48.93;;
48588;SDS011;34369;51.174;6.738;2022-12-01T06:21:14;51.40;;;46.53;;
48588;SDS011;34369;51.174;6.738;2022-12-01T06:23:47;53.13;;;48.13;;
48588;SDS011;34369;51.174;6.738;2022-12-01T06:26:19;55.73;;;50.30;;
48588;SDS011;34369;51.174;6.738;2022-12-01T06:28:51;55.63;;;50.03;;
48588;SDS011;34369;51.174;6.738;2022-12-01T06:31:23;55.93;;;50.43;;
48588;SDS011;34369;51.174;6.738;2022-12-01T06:33:55;57.10;;;51.53;;
48588;SDS011;34369;51.174;6.738;2022-12-01T06:36:27;52.57;;;47.60;;
48588;SDS011;34369;51.174;6.738;2022-12-01T06:39:01;50.70;;;45.80;;
48588;SDS011;34369;51.174;6.738;2022-12-01T06:41:37;52.80;;;47.73;;
48588;SDS011;34369;51.174;6.738;2022-12-01T06:44:09;50.33;;;45.67;;
48588;SDS011;34369;51.174;6.738;2022-12-01T06:46:41;52.87;;;47.97;;
48588;SDS011;34369;51.174;6.738;2022-12-01T06:49:13;54.53;;;49.23;;
48588;SDS011;34369;51.174;6.738;2022-12-01T06:51:46;57.70;;;52.00;;
48588;SDS011;34369;51.174;6.738;2022-12-01T06:54:19;57.93;;;52.03;;
48588;SDS011;34369;51.174;6.738;2022-12-01T06:56:51;60.43;;;54.00;;
48588;SDS011;34369;51.174;6.738;2022-12-01T06:59:23;60.50;;;54.50;;
48588;SDS011;34369;51.174;6.738;2022-12-01T07:01:56;58.57;;;52.73;;
48588;SDS011;34369;51.174;6.738;2022-12-01T07:04:28;55.77;;;50.00;;
48588;SDS011;34369;51.174;6.738;2022-12-01T07:07:01;53.70;;;48.40;;
48588;SDS011;34369;51.174;6.738;2022-12-01T07:09:36;55.43;;;49.87;;
48588;SDS011;34369;51.174;6.738;2022-12-01T07:12:09;55.77;;;50.20;;
48588;SDS011;34369;51.174;6.738;2022-12-01T07:14:44;54.23;;;49.03;;
48588;SDS011;34369;51.174;6.738;2022-12-01T07:17:17;56.13;;;50.73;;
48588;SDS011;34369;51.174;6.738;2022-12-01T07:19:49;54.13;;;49.10;;
48588;SDS011;34369;51.174;6.738;2022-12-01T07:22:21;50.20;;;45.37;;
48588;SDS011;34369;51.174;6.738;2022-12-01T07:24:58;53.27;;;48.30;;
48588;SDS011;34369;51.174;6.738;2022-12-01T07:27:30;55.90;;;50.67;;
48588;SDS011;34369;51.174;6.738;2022-12-01T07:30:03;52.77;;;47.60;;
48588;SDS011;34369;51.174;6.738;2022-12-01T07:32:38;52.83;;;47.73;;
48588;SDS011;34369;51.174;6.738;2022-12-01T07:35:11;52.00;;;47.00;;
48588;SDS011;34369;51.174;6.738;2022-12-01T07:37:43;52.53;;;47.53;;
48588;SDS011;34369;51.174;6.738;2022-12-01T07:40:18;51.83;;;47.13;;
48588;SDS011;34369;51.174;6.738;2022-12-01T07:42:50;52.60;;;47.67;;
48588;SDS011;34369;51.174;6.738;2022-12-01T07:45:23;51.93;;;47.23;;
48588;SDS011;34369;51.174;6.738;2022-12-01T07:47:55;50.77;;;45.93;;
48588;SDS011;34369;51.174;6.738;2022-12-01T07:50:27;50.93;;;46.40;;
48588;SDS011;34369;51.174;6.738;2022-12-01T07:53:02;53.07;;;48.17;;
48588;SDS011;34369;51.174;6.738;2022-12-01T07:55:36;52.73;;;47.73;;
48588;SDS011;34369;51.174;6.738;2022-12-01T07:58:08;54.23;;;49.07;;
48588;SDS011;34369;51.174;6.738;2022-12-01T08:00:40;53.63;;;48.43;;
48588;SDS011;34369;51.174;6.738;2022-12-01T08:03:17;53.33;;;48.33;;
48588;SDS011;34369;51.174;6.738;2022-12-01T08:05:55;53.67;;;48.10;;
48588;SDS011;34369;51.174;6.738;2022-12-01T08:11:04;54.70;;;49.50;;
48588;SDS011;34369;51.174;6.738;2022-12-01T08:13:41;53.70;;;48.53;;
48588;SDS011;34369;51.174;6.738;2022-12-01T08:16:15;55.60;;;49.90;;
48588;SDS011;34369;51.174;6.738;2022-12-01T08:18:49;52.80;;;47.70;;
48588;SDS011;34369;51.174;6.738;2022-12-01T08:21:22;56.10;;;50.43;;
48588;SDS011;34369;51.174;6.738;2022-12-01T08:23:56;54.47;;;49.40;;
48588;SDS011;34369;51.174;6.738;2022-12-01T08:26:31;54.97;;;49.47;;
48588;SDS011;34369;51.174;6.738;2022-12-01T08:29:04;54.27;;;48.97;;
48588;SDS011;34369;51.174;6.738;2022-12-01T08:31:39;56.10;;;50.73;;
48588;SDS011;34369;51.174;6.738;2022-12-01T08:34:11;54.83;;;49.47;;
48588;SDS011;34369;51.174;6.738;2022-12-01T08:36:44;54.33;;;48.83;;
48588;SDS011;34369;51.174;6.738;2022-12-01T08:39:17;56.40;;;50.93;;
48588;SDS011;34369;51.174;6.738;2022-12-01T08:41:52;56.97;;;51.13;;
48588;SDS011;34369;51.174;6.738;2022-12-01T08:44:25;55.90;;;50.27;;
48588;SDS011;34369;51.174;6.738;2022-12-01T08:46:58;56.37;;;50.83;;
48588;SDS011;34369;51.174;6.738;2022-12-01T08:49:30;56.57;;;50.97;;
48588;SDS011;34369;51.174;6.738;2022-12-01T08:52:03;56.27;;;50.40;;
48588;SDS011;34369;51.174;6.738;2022-12-01T08:54:36;59.73;;;53.57;;
48588;SDS011;34369;51.174;6.738;2022-12-01T08:57:10;54.40;;;49.13;;
48588;SDS011;34369;51.174;6.738;2022-12-01T08:59:43;57.00;;;51.40;;
48588;SDS011;34369;51.174;6.738;2022-12-01T09:02:16;56.87;;;51.00;;
48588;SDS011;34369;51.174;6.738;2022-12-01T09:04:52;54.70;;;48.90;;
48588;SDS011;34369;51.174;6.738;2022-12-01T09:07:25;54.83;;;49.03;;
48588;SDS011;34369;51.174;6.738;2022-12-01T09:10:01;56.07;;;50.33;;
48588;SDS011;34369;51.174;6.738;2022-12-01T09:12:38;55.13;;;49.33;;
48588;SDS011;34369;51.174;6.738;2022-12-01T09:15:10;54.67;;;49.10;;
48588;SDS011;34369;51.174;6.738;2022-12-01T09:17:44;56.23;;;50.50;;
48588;SDS011;34369;51.174;6.738;2022-12-01T09:20:17;55.67;;;49.90;;
48588;SDS011;34369;51.174;6.738;2022-12-01T09:22:49;55.73;;;49.93;;
48588;SDS011;34369;51.174;6.738;2022-12-01T09:25:22;57.97;;;52.10;;
48588;SDS011;34369;51.174;6.738;2022-12-01T09:27:56;57.07;;;51.20;;
48588;SDS011;34369;51.174;6.738;2022-12-01T09:30:29;57.13;;;51.03;;
48588;SDS011;34369;51.174;6.738;2022-12-01T09:33:02;56.10;;;50.37;;
48588;SDS011;34369;51.174;6.738;2022-12-01T09:35:35;57.73;;;51.80;;
48588;SDS011;34369;51.174;6.738;2022-12-01T09:38:08;58.97;;;52.97;;
48588;SDS011;34369;51.174;6.738;2022-12-01T09:40:41;58.53;;;52.23;;
48588;SDS011;34369;51.174;6.738;2022-12-01T09:43:19;58.17;;;52.17;;
48588;SDS011;34369;51.174;6.738;2022-12-01T09:45:57;57.07;;;51.20;;
48588;SDS011;34369;51.174;6.738;2022-12-01T09:48:43;56.50;;;50.37;;
48588;SDS011;34369;51.174;6.738;2022-12-01T09:51:19;56.97;;;51.33;;
48588;SDS011;34369;51.174;6.738;2022-12-01T10:04:30;56.67;;;50.73;;
48588;SDS011;34369;51.174;6.738;2022-12-01T10:14:46;57.53;;;51.53;;
48588;SDS011;34369;51.174;6.738;2022-12-01T10:18:19;53.95;;;48.30;;
48588;SDS011;34369;51.174;6.738;2022-12-01T10:25:09;52.60;;;47.47;;
48588;SDS011;34369;51.174;6.738;2022-12-01T10:35:39;52.63;;;46.97;;
48588;SDS011;34369;51.174;6.738;2022-12-01T10:38:26;54.25;;;49.03;;
48588;SDS011;34369;51.174;6.738;2022-12-01T10:41:41;53.13;;;48.00;;
48588;SDS011;34369;51.174;6.738;2022-12-01T10:51:55;49.67;;;44.90;;
48588;SDS011;34369;51.174;6.738;2022-12-01T10:55:50;49.83;;;45.13;;
48588;SDS011;34369;51.174;6.738;2022-12-01T11:03:17;51.80;;;46.80;;
48588;SDS011;34369;51.174;6.738;2022-12-01T11:06:35;51.47;;;46.67;;
48588;SDS011;34369;51.174;6.738;2022-12-01T11:09:17;51.10;;;45.90;;
48588;SDS011;34369;51.174;6.738;2022-12-01T11:12:04;51.77;;;46.90;;
48588;SDS011;34369;51.174;6.738;2022-12-01T11:18:30;51.97;;;46.97;;
48588;SDS011;34369;51.174;6.738;2022-12-01T11:22:28;52.30;;;47.40;;
48588;SDS011;34369;51.174;6.738;2022-12-01T11:49:03;47.80;;;43.53;;
48588;SDS011;34369;51.174;6.738;2022-12-01T12:00:19;47.23;;;42.87;;
48588;SDS011;34369;51.174;6.738;2022-12-01T12:08:30;49.07;;;44.67;;
48588;SDS011;34369;51.174;6.738;2022-12-01T12:16:13;51.67;;;47.07;;
48588;SDS011;34369;51.174;6.738;2022-12-01T12:22:42;51.97;;;47.47;;
48588;SDS011;34369;51.174;6.738;2022-12-01T12:25:41;51.70;;;47.07;;
48588;SDS011;34369;51.174;6.738;2022-12-01T12:44:55;51.90;;;47.17;;
48588;SDS011;34369;51.174;6.738;2022-12-01T12:51:09;55.70;;;50.53;;
48588;SDS011;34369;51.174;6.738;2022-12-01T12:53:48;54.83;;;49.87;;
48588;SDS011;34369;51.174;6.738;2022-12-01T12:56:27;55.70;;;50.73;;
48588;SDS011;34369;51.174;6.738;2022-12-01T12:59:04;56.70;;;51.30;;
48588;SDS011;34369;51.174;6.738;2022-12-01T13:01:43;53.90;;;48.93;;
48588;SDS011;34369;51.174;6.738;2022-12-01T13:04:31;54.13;;;49.05;;
48588;SDS011;34369;51.174;6.738;2022-12-01T13:07:20;54.90;;;49.77;;
48588;SDS011;34369;51.174;6.738;2022-12-01T13:10:06;57.03;;;51.80;;
48588;SDS011;34369;51.174;6.738;2022-12-01T13:12:54;57.33;;;51.73;;
48588;SDS011;34369;51.174;6.738;2022-12-01T13:15:32;56.90;;;51.53;;
48588;SDS011;34369;51.174;6.738;2022-12-01T13:18:10;55.47;;;50.00;;
48588;SDS011;34369;51.174;6.738;2022-12-01T13:20:56;57.60;;;52.17;;
48588;SDS011;34369;51.174;6.738;2022-12-01T13:23:29;58.33;;;52.90;;
48588;SDS011;34369;51.174;6.738;2022-12-01T13:26:03;57.57;;;51.67;;
48588;SDS011;34369;51.174;6.738;2022-12-01T13:28:44;58.77;;;53.13;;
48588;SDS011;34369;51.174;6.738;2022-12-01T13:31:20;61.97;;;55.87;;
48588;SDS011;34369;51.174;6.738;2022-12-01T13:33:56;60.13;;;54.23;;
48588;SDS011;34369;51.174;6.738;2022-12-01T13:36:31;61.20;;;55.07;;
48588;SDS011;34369;51.174;6.738;2022-12-01T13:39:05;61.40;;;55.07;;
48588;SDS011;34369;51.174;6.738;2022-12-01T13:42:04;61.70;;;55.60;;
48588;SDS011;34369;51.174;6.738;2022-12-01T13:44:41;61.77;;;55.73;;
48588;SDS011;34369;51.174;6.738;2022-12-01T13:47:31;63.63;;;57.33;;
48588;SDS011;34369;51.174;6.738;2022-12-01T13:53:27;61.57;;;55.50;;
48588;SDS011;34369;51.174;6.738;2022-12-01T13:56:25;62.60;;;56.30;;
48588;SDS011;34369;51.174;6.738;2022-12-01T14:02:16;63.27;;;56.57;;
48588;SDS011;34369;51.174;6.738;2022-12-01T14:04:51;63.63;;;57.30;;
48588;SDS011;34369;51.174;6.738;2022-12-01T14:07:31;63.87;;;57.47;;
48588;SDS011;34369;51.174;6.738;2022-12-01T14:10:08;64.80;;;58.40;;
48588;SDS011;34369;51.174;6.738;2022-12-01T14:13:01;61.03;;;55.00;;
48588;SDS011;34369;51.174;6.738;2022-12-01T14:15:36;62.40;;;56.33;;
48588;SDS011;34369;51.174;6.738;2022-12-01T14:20:57;60.17;;;53.77;;
48588;SDS011;34369;51.174;6.738;2022-12-01T14:23:34;61.50;;;55.43;;
48588;SDS011;34369;51.174;6.738;2022-12-01T14:26:11;66.33;;;59.63;;
48588;SDS011;34369;51.174;6.738;2022-12-01T14:32:21;66.77;;;59.70;;
48588;SDS011;34369;51.174;6.738;2022-12-01T14:34:54;67.13;;;60.47;;
48588;SDS011;34369;51.174;6.738;2022-12-01T14:37:36;65.90;;;59.37;;
48588;SDS011;34369;51.174;6.738;2022-12-01T14:40:22;65.90;;;59.10;;
48588;SDS011;34369;51.174;6.738;2022-12-01T14:43:05;67.60;;;60.57;;
48588;SDS011;34369;51.174;6.738;2022-12-01T14:46:02;67.37;;;60.33;;
48588;SDS011;34369;51.174;6.738;2022-12-01T14:48:50;65.93;;;59.10;;
48588;SDS011;34369;51.174;6.738;2022-12-01T14:51:26;68.47;;;61.80;;
48588;SDS011;34369;51.174;6.738;2022-12-01T14:54:16;64.38;;;57.97;;
48588;SDS011;34369;51.174;6.738;2022-12-01T14:57:15;66.22;;;59.58;;
48588;SDS011;34369;51.174;6.738;2022-12-01T15:00:04;66.37;;;59.87;;
48588;SDS011;34369;51.174;6.738;2022-12-01T15:02:43;66.70;;;59.75;;
48588;SDS011;34369;51.174;6.738;2022-12-01T15:05:21;64.70;;;58.30;;
48588;SDS011;34369;51.174;6.738;2022-12-01T15:07:57;66.78;;;59.92;;
48588;SDS011;34369;51.174;6.738;2022-12-01T15:10:48;64.90;;;58.23;;
48588;SDS011;34369;51.174;6.738;2022-12-01T15:13:24;68.60;;;61.50;;
48588;SDS011;34369;51.174;6.738;2022-12-01T15:16:01;70.70;;;63.43;;
48588;SDS011;34369;51.174;6.738;2022-12-01T15:18:36;71.43;;;63.60;;
48588;SDS011;34369;51.174;6.738;2022-12-01T15:21:09;73.50;;;65.50;;
48588;SDS011;34369;51.174;6.738;2022-12-01T15:23:52;72.90;;;65.07;;
48588;SDS011;34369;51.174;6.738;2022-12-01T15:26:28;71.13;;;63.50;;
48588;SDS011;34369;51.174;6.738;2022-12-01T15:29:16;69.87;;;62.47;;
48588;SDS011;34369;51.174;6.738;2022-12-01T15:31:52;70.67;;;63.07;;
48588;SDS011;34369;51.174;6.738;2022-12-01T15:34:29;73.35;;;65.50;;
48588;SDS011;34369;51.174;6.738;2022-12-01T15:37:09;69.47;;;62.27;;
48588;SDS011;34369;51.174;6.738;2022-12-01T15:39:46;72.00;;;64.43;;
48588;SDS011;34369;51.174;6.738;2022-12-01T15:42:25;71.75;;;64.60;;
48588;SDS011;34369;51.174;6.738;2022-12-01T15:45:03;69.83;;;62.50;;
48588;SDS011;34369;51.174;6.738;2022-12-01T15:47:49;71.13;;;63.63;;
48588;SDS011;34369;51.174;6.738;2022-12-01T15:50:25;71.47;;;64.05;;
48588;SDS011;34369;51.174;6.738;2022-12-01T15:53:03;71.07;;;63.37;;
48588;SDS011;34369;51.174;6.738;2022-12-01T15:55:49;74.93;;;67.03;;
48588;SDS011;34369;51.174;6.738;2022-12-01T15:58:24;72.60;;;64.80;;
48588;SDS011;34369;51.174;6.738;2022-12-01T16:01:01;72.37;;;64.77;;
48588;SDS011;34369;51.174;6.738;2022-12-01T16:03:46;70.10;;;62.60;;
48588;SDS011;34369;51.174;6.738;2022-12-01T16:06:26;72.30;;;64.87;;
48588;SDS011;34369;51.174;6.738;2022-12-01T16:09:15;70.30;;;63.00;;
48588;SDS011;34369;51.174;6.738;2022-12-01T16:12:05;72.60;;;64.97;;
48588;SDS011;34369;51.174;6.738;2022-12-01T16:14:53;71.63;;;64.20;;
48588;SDS011;34369;51.174;6.738;2022-12-01T16:17:41;72.50;;;64.77;;
48588;SDS011;34369;51.174;6.738;2022-12-01T16:20:20;76.43;;;68.17;;
48588;SDS011;34369;51.174;6.738;2022-12-01T16:22:57;71.70;;;64.20;;
48588;SDS011;34369;51.174;6.738;2022-12-01T16:25:33;70.22;;;62.80;;
48588;SDS011;34369;51.174;6.738;2022-12-01T16:28:20;72.27;;;64.77;;
48588;SDS011;34369;51.174;6.738;2022-12-01T16:30:55;72.13;;;64.75;;
48588;SDS011;34369;51.174;6.738;2022-12-01T16:33:28;72.07;;;64.67;;
48588;SDS011;34369;51.174;6.738;2022-12-01T16:36:05;69.63;;;62.33;;
48588;SDS011;34369;51.174;6.738;2022-12-01T16:38:38;73.20;;;65.60;;
48588;SDS011;34369;51.174;6.738;2022-12-01T16:41:13;68.97;;;62.13;;
48588;SDS011;34369;51.174;6.738;2022-12-01T16:43:48;71.10;;;63.87;;
48588;SDS011;34369;51.174;6.738;2022-12-01T16:46:20;70.17;;;62.87;;
48588;SDS011;34369;51.174;6.738;2022-12-01T16:48:54;70.73;;;63.50;;
48588;SDS011;34369;51.174;6.738;2022-12-01T16:51:26;73.17;;;65.83;;
48588;SDS011;34369;51.174;6.738;2022-12-01T16:53:58;70.03;;;62.90;;
48588;SDS011;34369;51.174;6.738;2022-12-01T16:56:33;71.27;;;64.27;;
48588;SDS011;34369;51.174;6.738;2022-12-01T16:59:05;65.87;;;59.17;;
48588;SDS011;34369;51.174;6.738;2022-12-01T17:01:37;66.93;;;60.30;;
48588;SDS011;34369;51.174;6.738;2022-12-01T17:04:11;65.07;;;58.27;;
48588;SDS011;34369;51.174;6.738;2022-12-01T17:06:43;67.23;;;60.53;;
48588;SDS011;34369;51.174;6.738;2022-12-01T17:09:15;66.03;;;59.63;;
48588;SDS011;34369;51.174;6.738;2022-12-01T17:11:47;69.60;;;62.27;;
48588;SDS011;34369;51.174;6.738;2022-12-01T17:14:19;71.57;;;64.47;;
48588;SDS011;34369;51.174;6.738;2022-12-01T17:16:51;67.30;;;60.50;;
48588;SDS011;34369;51.174;6.738;2022-12-01T17:19:25;68.93;;;62.07;;
48588;SDS011;34369;51.174;6.738;2022-12-01T17:21:57;69.07;;;62.23;;
48588;SDS011;34369;51.174;6.738;2022-12-01T17:24:29;70.23;;;63.37;;
48588;SDS011;34369;51.174;6.738;2022-12-01T17:27:01;66.17;;;59.87;;
48588;SDS011;34369;51.174;6.738;2022-12-01T17:29:33;68.43;;;61.73;;
48588;SDS011;34369;51.174;6.738;2022-12-01T17:32:15;70.17;;;63.17;;
48588;SDS011;34369;51.174;6.738;2022-12-01T17:34:48;69.97;;;62.90;;
48588;SDS011;34369;51.174;6.738;2022-12-01T17:37:21;69.40;;;62.77;;
48588;SDS011;34369;51.174;6.738;2022-12-01T17:39:53;68.23;;;61.30;;